Time;durP1;ratioP1;P1;durP2;ratioP2;P2;SDS_P1;SDS_P2;PMS_P1;PMS_P2;Temp;Humidity;BMP_temperature;BMP_pressure;BME280_temperature;BME280_humidity;BME280_pressure;Samples;Min_cycle;Max_cycle;Signal;HPM_P1;HPM_P2
2022/12/12 00:01:47;;;;;;;59.92;26.95;;;;;;;-0.22;100.00;100189.84;5027250;28;20049;-42
2022/12/12 00:04:14;;;;;;;66.13;26.65;;;;;;;-0.23;100.00;100192.84;5034978;28;20128;-42
2022/12/12 00:06:40;;;;;;;75.38;25.77;;;;;;;-0.26;100.00;100185.25;5021016;28;20061;-43
2022/12/12 00:09:08;;;;;;;59.88;24.20;;;;;;;-0.27;100.00;100191.81;5026243;28;20565;-45
2022/12/12 00:11:35;;;;;;;80.70;24.85;;;;;;;-0.27;100.00;100194.53;5026938;28;20072;-42
2022/12/12 00:14:03;;;;;;;66.65;25.70;;;;;;;-0.28;100.00;100198.34;5027523;28;20077;-42
2022/12/12 00:16:29;;;;;;;60.15;24.63;;;;;;;-0.28;100.00;100196.44;5027696;28;20407;-42
2022/12/12 00:18:56;;;;;;;63.42;25.50;;;;;;;-0.27;100.00;100197.25;5029255;28;20079;-42
2022/12/12 00:21:25;;;;;;;64.93;21.10;;;;;;;-0.30;100.00;100186.94;5036519;28;20053;-43
2022/12/12 00:23:53;;;;;;;94.68;26.27;;;;;;;-0.32;100.00;100189.13;5027683;28;20069;-41
2022/12/12 00:26:26;;;;;;;64.70;22.60;;;;;;;-0.28;100.00;100195.63;5027118;28;20107;-46
2022/12/12 00:28:53;;;;;;;63.90;25.27;;;;;;;-0.30;100.00;100200.53;5026469;28;20045;-42
2022/12/12 00:31:20;;;;;;;53.45;22.13;;;;;;;-0.27;100.00;100202.69;5027866;28;20077;-42
2022/12/12 00:33:50;;;;;;;60.13;23.20;;;;;;;-0.29;100.00;100199.44;5026138;28;20053;-42
2022/12/12 00:36:20;;;;;;;67.85;24.20;;;;;;;-0.29;100.00;100196.72;5028407;28;20049;-47
2022/12/12 00:38:47;;;;;;;76.32;24.33;;;;;;;-0.33;100.00;100192.94;5027646;28;20139;-43
2022/12/12 00:41:14;;;;;;;67.50;24.25;;;;;;;-0.32;100.00;100186.41;5024185;28;20063;-43
2022/12/12 00:43:41;;;;;;;71.68;24.50;;;;;;;-0.31;100.00;100190.75;5025184;28;20060;-53
2022/12/12 00:46:13;;;;;;;72.22;23.88;;;;;;;-0.32;100.00;100184.50;5022588;28;20041;-43
2022/12/12 00:48:40;;;;;;;70.20;24.17;;;;;;;-0.30;100.00;100182.31;5022938;28;20048;-42
2022/12/12 00:51:09;;;;;;;118.45;27.92;;;;;;;-0.29;100.00;100174.97;5021698;28;20053;-41
2022/12/12 00:53:37;;;;;;;98.60;26.38;;;;;;;-0.31;100.00;100179.88;5027512;28;20041;-41
2022/12/12 00:56:04;;;;;;;76.93;26.40;;;;;;;-0.33;100.00;100176.63;5027080;28;20049;-49
2022/12/12 00:58:32;;;;;;;98.18;26.75;;;;;;;-0.34;100.00;100175.00;5025488;28;20057;-44
2022/12/12 01:01:05;;;;;;;81.10;24.52;;;;;;;-0.34;100.00;100180.44;5027209;28;20046;-42
2022/12/12 01:03:33;;;;;;;78.68;27.60;;;;;;;-0.33;100.00;100171.19;5028559;28;20050;-44
2022/12/12 01:06:03;;;;;;;80.93;26.13;;;;;;;-0.30;100.00;100170.63;5027064;28;20140;-43
2022/12/12 01:08:30;;;;;;;82.63;24.38;;;;;;;-0.29;100.00;100172.25;5026956;28;20450;-42
2022/12/12 01:10:56;;;;;;;78.50;24.42;;;;;;;-0.29;100.00;100161.38;5023072;28;20068;-43
2022/12/12 01:13:24;;;;;;;80.63;24.45;;;;;;;-0.29;100.00;100158.66;5023048;28;20053;-41
2022/12/12 01:15:50;;;;;;;80.82;21.38;;;;;;;-0.30;100.00;100163.28;5026664;28;20041;-42
2022/12/12 01:18:18;;;;;;;75.10;21.65;;;;;;;-0.33;100.00;100160.31;5026942;28;20099;-42
2022/12/12 01:20:45;;;;;;;123.50;25.92;;;;;;;-0.37;100.00;100159.28;5026576;28;20050;-42
2022/12/12 01:23:12;;;;;;;107.15;23.13;;;;;;;-0.43;100.00;100161.22;5026825;28;20037;-43
2022/12/12 01:25:39;;;;;;;103.57;22.65;;;;;;;-0.47;100.00;100153.91;5026697;28;20065;-42
2022/12/12 01:28:06;;;;;;;107.25;20.92;;;;;;;-0.48;100.00;100152.31;5028170;28;20045;-41
2022/12/12 01:30:33;;;;;;;104.15;23.30;;;;;;;-0.49;100.00;100153.41;5026563;28;20141;-43
2022/12/12 01:33:00;;;;;;;88.30;22.73;;;;;;;-0.50;100.00;100155.31;5026157;28;20050;-42
2022/12/12 01:35:27;;;;;;;99.85;21.60;;;;;;;-0.53;100.00;100149.66;5025151;28;20049;-41
2022/12/12 01:37:53;;;;;;;73.18;21.63;;;;;;;-0.52;100.00;100156.69;5026723;28;20037;-42
2022/12/12 01:40:27;;;;;;;110.18;24.75;;;;;;;-0.51;100.00;100161.84;5026013;28;20559;-42
2022/12/12 01:42:54;;;;;;;98.53;21.55;;;;;;;-0.54;100.00;100164.31;5027201;28;20063;-42
2022/12/12 01:46:01;;;;;;;101.05;22.88;;;;;;;-0.56;100.00;100161.09;5032063;28;20045;-42
2022/12/12 01:48:33;;;;;;;70.03;19.45;;;;;;;-0.57;100.00;100160.28;5026919;28;20041;-43
2022/12/12 01:51:03;;;;;;;69.25;20.65;;;;;;;-0.57;100.00;100159.47;5026604;28;20077;-42
2022/12/12 01:53:31;;;;;;;87.68;23.13;;;;;;;-0.56;100.00;100152.94;5024281;28;20049;-43
2022/12/12 01:56:02;;;;;;;71.82;20.70;;;;;;;-0.53;100.00;100152.38;5026291;28;20064;-41
2022/12/12 01:58:29;;;;;;;70.15;20.80;;;;;;;-0.53;100.00;100152.38;5023747;28;20597;-46
2022/12/12 02:00:56;;;;;;;88.95;23.00;;;;;;;-0.53;100.00;100160.53;5024907;28;20069;-41
2022/12/12 02:03:23;;;;;;;112.43;20.33;;;;;;;-0.53;100.00;100161.31;5024987;28;20519;-42
2022/12/12 02:05:55;;;;;;;123.13;22.13;;;;;;;-0.54;100.00;100162.41;5029035;28;20048;-41
2022/12/12 02:08:22;;;;;;;85.07;21.58;;;;;;;-0.56;100.00;100155.66;5027503;28;20064;-46
2022/12/12 02:10:50;;;;;;;108.65;21.85;;;;;;;-0.58;100.00;100155.13;5026641;28;20550;-41
2022/12/12 02:13:27;;;;;;;100.22;20.15;;;;;;;-0.62;100.00;100152.97;5026741;28;20612;-47
2022/12/12 02:16:31;;;;;;;117.07;23.23;;;;;;;-0.62;100.00;100152.97;5025733;28;20091;-41
2022/12/12 02:19:51;;;;;;;56.67;18.95;;;;;;;-0.59;100.00;100145.34;5023737;28;20120;-43
2022/12/12 02:22:27;;;;;;;74.78;19.65;;;;;;;-0.57;100.00;100143.16;5005928;28;20049;-41
2022/12/12 02:25:00;;;;;;;67.45;19.75;;;;;;;-0.58;100.00;100152.41;5003586;28;20216;-41
2022/12/12 02:27:44;;;;;;;;;;;;;;;-0.58;100.00;100147.75;5019013;28;20060;-41
2022/12/12 02:30:13;;;;;;;88.40;19.00;;;;;;;-0.57;100.00;100154.03;5027391;28;19940;-42
2022/12/12 02:32:53;;;;;;;73.05;16.52;;;;;;;-0.57;100.00;100156.75;5027517;28;20509;-42
2022/12/12 02:35:29;;;;;;;93.82;21.27;;;;;;;-0.61;100.00;100154.59;5033348;28;20547;-48
2022/12/12 02:38:02;;;;;;;91.55;19.40;;;;;;;-0.64;100.00;100149.72;5028161;28;20092;-42
2022/12/12 02:40:38;;;;;;;;;;;;;;;-0.67;100.00;100152.22;5023853;28;20057;-41
2022/12/12 02:43:05;;;;;;;103.68;22.33;;;;;;;-0.66;100.00;100157.34;5031516;28;19921;-41
2022/12/12 02:45:38;;;;;;;94.15;19.63;;;;;;;-0.68;100.00;100148.69;5023615;28;20057;-41
2022/12/12 02:48:28;;;;;;;99.32;19.30;;;;;;;-0.73;100.00;100148.72;5026287;28;20041;-41
2022/12/12 02:50:57;;;;;;;108.22;20.75;;;;;;;-0.77;100.00;100153.09;5027706;28;20053;-42
2022/12/12 02:53:24;;;;;;;102.63;20.48;;;;;;;-0.78;100.00;100148.78;5029724;28;20600;-42
2022/12/12 02:56:05;;;;;;;131.18;21.98;;;;;;;-0.80;100.00;100150.97;5026462;28;20557;-42
2022/12/12 02:58:35;;;;;;;116.28;20.98;;;;;;;-0.80;100.00;100150.16;5019589;28;20057;-41
2022/12/12 03:01:29;;;;;;;107.63;20.13;;;;;;;-0.82;100.00;100153.13;5057630;22;20069;-41
2022/12/12 03:10:00;;;;;;;87.13;19.02;;;;;;;-0.89;100.00;100151.84;5025160;28;20453;-40
2022/12/12 03:12:49;;;;;;;96.68;18.50;;;;;;;-0.91;100.00;100138.56;5027493;28;20084;-49
2022/12/12 03:15:25;;;;;;;82.15;18.77;;;;;;;-0.88;100.00;100146.16;5026009;28;20077;-40
2022/12/12 03:18:20;;;;;;;112.82;19.98;;;;;;;-0.88;100.00;100132.56;5028558;28;20045;-40
2022/12/12 03:20:54;;;;;;;141.13;22.77;;;;;;;-0.86;100.00;100140.41;5023411;28;20072;-40
2022/12/12 03:23:27;;;;;;;63.08;18.90;;;;;;;-0.82;100.00;100141.50;5029239;28;20106;-40
2022/12/12 03:26:02;;;;;;;115.20;23.00;;;;;;;-0.80;100.00;100139.28;5030461;28;21143;-48
2022/12/12 03:28:53;;;;;;;89.40;21.27;;;;;;;-0.79;100.00;100130.84;5027875;28;20038;-40
2022/12/12 03:31:27;;;;;;;122.72;21.98;;;;;;;-0.75;100.00;100126.47;5017851;28;20053;-40
2022/12/12 03:34:00;;;;;;;127.93;26.15;;;;;;;-0.77;100.00;100117.78;5028806;28;20049;-40
2022/12/12 03:37:02;;;;;;;144.43;25.05;;;;;;;-0.77;100.00;100114.25;5028835;28;20403;-40
2022/12/12 03:39:41;;;;;;;170.35;27.67;;;;;;;-0.82;100.00;100123.25;5026931;28;20153;-40
2022/12/12 03:42:17;;;;;;;127.10;22.63;;;;;;;-0.88;100.00;100116.25;5028244;28;20045;-40
2022/12/12 03:45:04;;;;;;;156.38;23.88;;;;;;;-0.88;100.00;100115.44;5027891;28;20049;-41
2022/12/12 03:47:42;;;;;;;165.15;27.67;;;;;;;-0.88;100.00;100116.25;5027383;28;20055;-44
2022/12/12 03:50:20;;;;;;;147.60;24.98;;;;;;;-0.89;100.00;100120.06;5024162;28;20496;-40
2022/12/12 03:53:00;;;;;;;179.75;27.55;;;;;;;-0.86;100.00;100108.63;5025273;28;20053;-41
2022/12/12 03:55:55;;;;;;;166.95;24.85;;;;;;;-0.84;100.00;100113.75;5023276;28;20075;-40
2022/12/12 03:58:36;;;;;;;124.35;23.60;;;;;;;-0.87;100.00;100112.44;5025033;28;20128;-40
2022/12/12 04:01:06;;;;;;;98.00;17.88;;;;;;;-0.90;100.00;100118.44;5021124;28;20115;-43
2022/12/12 04:03:59;;;;;;;196.98;26.83;;;;;;;-0.93;100.00;100119.03;5025918;28;20410;-44
2022/12/12 04:06:29;;;;;;;153.27;22.83;;;;;;;-0.94;100.00;100111.97;5027974;28;20156;-41
2022/12/12 04:15:21;;;;;;;176.13;24.92;;;;;;;-0.87;100.00;100117.03;5026009;28;20107;-42
2022/12/12 04:18:27;;;;;;;193.65;27.15;;;;;;;-0.89;100.00;100114.63;4986971;28;20061;-41
2022/12/12 04:24:04;;;;;;;186.18;26.27;;;;;;;-0.94;100.00;100114.69;5024892;28;20056;-40
2022/12/12 04:26:38;;;;;;;134.35;21.45;;;;;;;-0.94;100.00;100103.81;5017410;28;20515;-40
2022/12/12 04:29:23;;;;;;;97.70;20.52;;;;;;;-0.90;100.00;100110.28;5024908;28;20056;-40
2022/12/12 04:32:12;;;;;;;98.28;22.38;;;;;;;-0.86;100.00;100108.63;5015270;28;20050;-41
2022/12/12 04:34:46;;;;;;;85.55;19.92;;;;;;;-0.86;100.00;100103.19;5022273;28;20053;-41
2022/12/12 04:37:17;;;;;;;110.85;21.10;;;;;;;-0.89;100.00;100098.31;5026792;28;20483;-41
2022/12/12 04:39:47;;;;;;;138.43;23.65;;;;;;;-0.90;100.00;100095.91;5015547;28;20045;-44
2022/12/12 04:42:17;;;;;;;136.25;23.90;;;;;;;-0.95;100.00;100096.75;5022984;28;20116;-41
2022/12/12 04:44:46;;;;;;;140.05;22.38;;;;;;;-0.96;100.00;100092.41;5022792;28;20045;-40
2022/12/12 04:47:14;;;;;;;128.65;20.60;;;;;;;-0.94;100.00;100092.13;5025960;28;20064;-41
2022/12/12 04:49:44;;;;;;;86.60;18.23;;;;;;;-0.95;100.00;100094.03;5026953;28;20052;-40
2022/12/12 04:52:14;;;;;;;152.05;21.35;;;;;;;-0.96;100.00;100081.56;5025178;28;20045;-40
2022/12/12 04:54:48;;;;;;;179.18;23.42;;;;;;;-0.99;100.00;100082.13;5017091;28;20038;-46
2022/12/12 04:57:24;;;;;;;180.60;23.40;;;;;;;-1.05;100.00;100085.97;5025391;28;20049;-41
2022/12/12 04:59:51;;;;;;;155.07;22.05;;;;;;;-1.06;100.00;100086.25;5024818;28;20038;-40
2022/12/12 05:02:38;;;;;;;113.07;20.33;;;;;;;-1.03;100.00;100089.19;5023640;28;20068;-41
2022/12/12 05:05:22;;;;;;;161.60;25.17;;;;;;;-1.02;100.00;100085.41;5023423;28;20041;-41
2022/12/12 05:07:56;;;;;;;141.20;19.90;;;;;;;-1.02;100.00;100082.69;5026049;28;20136;-40
2022/12/12 05:10:24;;;;;;;189.23;27.17;;;;;;;-1.04;100.00;100084.88;5026829;28;20559;-41
2022/12/12 05:12:57;;;;;;;193.45;25.20;;;;;;;-1.04;100.00;100078.63;5026941;28;20398;-43
2022/12/12 05:15:24;;;;;;;91.53;17.63;;;;;;;-1.06;100.00;100078.91;5026332;28;20053;-45
2022/12/12 05:18:06;;;;;;;80.82;17.73;;;;;;;-1.06;100.00;100076.19;5026827;28;20053;-40
2022/12/12 05:20:33;;;;;;;224.65;26.48;;;;;;;-1.06;100.00;100078.91;5026595;28;20084;-40
2022/12/12 05:23:00;;;;;;;187.40;21.58;;;;;;;-1.07;100.00;100080.03;5026772;28;20044;-41
2022/12/12 05:25:26;;;;;;;135.82;20.15;;;;;;;-1.04;100.00;100078.63;5030434;28;20386;-43
2022/12/12 05:27:53;;;;;;;186.25;25.67;;;;;;;-1.00;100.00;100074.25;5026084;28;20044;-41
2022/12/12 05:30:20;;;;;;;219.73;25.90;;;;;;;-1.00;100.00;100083.22;5026745;28;20176;-41
2022/12/12 05:32:47;;;;;;;197.93;26.65;;;;;;;-1.05;100.00;100077.81;5023403;28;20057;-41
2022/12/12 05:35:14;;;;;;;129.45;19.70;;;;;;;-1.07;100.00;100080.03;5023086;28;20045;-43
2022/12/12 05:37:41;;;;;;;134.02;17.55;;;;;;;-1.09;100.00;100071.34;5027342;28;20129;-41
2022/12/12 05:40:15;;;;;;;150.52;17.65;;;;;;;-1.14;100.00;100076.81;5030489;28;20123;-44
2022/12/12 05:42:42;;;;;;;113.70;15.30;;;;;;;-1.16;100.00;100079.00;5033000;28;20045;-41
2022/12/12 05:45:10;;;;;;;156.90;21.73;;;;;;;-1.16;100.00;100084.44;5028499;28;20057;-45
2022/12/12 05:47:37;;;;;;;119.43;18.85;;;;;;;-1.20;100.00;100077.97;5044634;28;20096;-44
2022/12/12 05:50:04;;;;;;;124.97;17.98;;;;;;;-1.20;100.00;100075.25;5029336;28;20057;-41
2022/12/12 05:52:31;;;;;;;126.18;17.50;;;;;;;-1.21;100.00;100073.59;5028977;28;20087;-40
2022/12/12 05:55:04;;;;;;;;;;;;;;;-1.21;100.00;100068.19;5029406;28;20049;-42
2022/12/12 05:57:31;;;;;;;83.85;17.27;;;;;;;-1.21;100.00;100060.03;5028486;28;19921;-42
2022/12/12 05:59:57;;;;;;;211.95;21.42;;;;;;;-1.21;100.00;100062.75;5037455;28;20135;-40
2022/12/12 06:02:24;;;;;;;97.32;13.30;;;;;;;-1.23;100.00;100054.06;5026185;28;20057;-41
2022/12/12 06:04:51;;;;;;;141.90;17.52;;;;;;;-1.26;100.00;100046.50;5016610;28;20050;-43
2022/12/12 06:07:17;;;;;;;129.13;16.73;;;;;;;-1.28;100.00;100051.41;5025693;28;20080;-42
2022/12/12 06:09:44;;;;;;;137.65;17.65;;;;;;;-1.29;100.00;100044.34;5028899;28;20056;-41
2022/12/12 06:12:11;;;;;;;176.75;19.70;;;;;;;-1.35;100.00;100057.16;5029210;28;20072;-40
2022/12/12 06:14:38;;;;;;;160.10;19.95;;;;;;;-1.34;100.00;100056.06;5026188;28;20056;-48
2022/12/12 06:17:05;;;;;;;106.10;15.68;;;;;;;-1.30;100.00;100059.03;5031485;28;20057;-45
2022/12/12 06:19:32;;;;;;;139.63;19.48;;;;;;;-1.25;100.00;100050.84;5029277;28;20051;-47
2022/12/12 06:21:58;;;;;;;101.47;16.65;;;;;;;-1.18;100.00;100051.31;5022379;28;20304;-48
2022/12/12 06:24:25;;;;;;;95.40;16.17;;;;;;;-1.13;100.00;100053.97;5029968;28;20509;-41
2022/12/12 06:26:52;;;;;;;87.03;14.73;;;;;;;-1.10;100.00;100045.28;5028592;28;20046;-41
2022/12/12 06:29:19;;;;;;;98.35;15.13;;;;;;;-1.08;100.00;100058.56;5029922;28;20037;-43
2022/12/12 06:31:46;;;;;;;114.38;16.10;;;;;;;-1.08;100.00;100044.97;5030011;28;20505;-41
2022/12/12 06:34:13;;;;;;;126.57;16.83;;;;;;;-1.12;100.00;100049.38;5037506;28;20045;-41
2022/12/12 06:36:40;;;;;;;93.35;15.02;;;;;;;-1.20;100.00;100053.50;5029938;28;20160;-41
2022/12/12 06:39:07;;;;;;;99.63;14.77;;;;;;;-1.18;100.00;100045.88;5029899;28;20061;-41
2022/12/12 06:41:36;;;;;;;113.90;15.43;;;;;;;-1.20;100.00;100041.84;5029613;28;20049;-41
2022/12/12 06:44:03;;;;;;;140.10;15.88;;;;;;;-1.22;100.00;100036.69;5027039;28;20057;-42
2022/12/12 06:46:30;;;;;;;101.10;16.00;;;;;;;-1.22;100.00;100044.84;5029845;28;20076;-42
2022/12/12 06:48:57;;;;;;;91.60;15.18;;;;;;;-1.23;100.00;100037.78;5027950;28;20041;-41
2022/12/12 06:51:28;;;;;;;148.65;18.23;;;;;;;-1.21;100.00;100038.31;5039396;28;20491;-41
2022/12/12 06:53:55;;;;;;;117.68;15.82;;;;;;;-1.21;100.00;100041.03;5024942;28;20165;-43
2022/12/12 06:56:24;;;;;;;88.50;14.50;;;;;;;-1.24;100.00;100036.16;5025803;28;20152;-41
2022/12/12 06:58:52;;;;;;;159.10;18.30;;;;;;;-1.27;100.00;100039.44;5011336;28;20042;-41
2022/12/12 07:01:21;;;;;;;119.93;14.23;;;;;;;-1.28;100.00;100051.41;5024944;28;20426;-41
2022/12/12 07:03:50;;;;;;;133.48;16.08;;;;;;;-1.32;100.00;100036.75;5022939;28;20052;-41
2022/12/12 07:06:19;;;;;;;141.35;16.73;;;;;;;-1.27;100.00;100044.88;5028420;28;20042;-43
2022/12/12 07:08:47;;;;;;;126.80;16.63;;;;;;;-1.25;100.00;100050.84;5024030;28;20069;-42
2022/12/12 07:11:20;;;;;;;194.68;21.92;;;;;;;-1.24;100.00;100047.00;5028926;28;20054;-41
2022/12/12 07:13:46;;;;;;;214.60;24.38;;;;;;;-1.30;100.00;100040.03;5026527;28;20037;-41
2022/12/12 07:16:13;;;;;;;138.88;18.70;;;;;;;-1.31;100.00;100041.94;5028009;28;20396;-43
2022/12/12 07:18:40;;;;;;;117.20;16.77;;;;;;;-1.27;100.00;100032.09;5026380;28;20140;-41
2022/12/12 07:21:11;;;;;;;181.77;21.58;;;;;;;-1.26;100.00;100032.91;5018397;28;20049;-42
2022/12/12 07:23:38;;;;;;;119.18;17.55;;;;;;;-1.28;100.00;100041.38;5021286;28;20660;-41
2022/12/12 07:26:10;;;;;;;162.40;20.50;;;;;;;-1.28;100.00;100040.56;5029649;28;20380;-47
2022/12/12 07:28:37;;;;;;;120.00;17.38;;;;;;;-1.27;100.00;100037.53;5028338;28;20519;-41
2022/12/12 07:31:06;;;;;;;154.02;17.38;;;;;;;-1.26;100.00;100049.22;5027450;28;20128;-41
2022/12/12 07:33:33;;;;;;;147.88;19.63;;;;;;;-1.25;100.00;100043.50;5026671;28;20241;-41
2022/12/12 07:36:09;;;;;;;160.18;20.55;;;;;;;-1.18;100.00;100043.16;5023147;28;20050;-42
2022/12/12 07:38:36;;;;;;;97.38;17.85;;;;;;;-1.15;100.00;100049.94;5027850;28;20145;-41
2022/12/12 07:41:05;;;;;;;87.72;15.93;;;;;;;-1.12;100.00;100049.38;5028798;28;20053;-41
2022/12/12 07:43:34;;;;;;;142.93;20.98;;;;;;;-1.14;100.00;100055.09;5027576;28;20382;-41
2022/12/12 07:46:10;;;;;;;132.13;19.20;;;;;;;-1.12;100.00;100052.91;5027884;28;20132;-41
2022/12/12 07:48:37;;;;;;;147.10;17.67;;;;;;;-1.11;100.00;100051.78;5028274;28;20033;-42
2022/12/12 07:51:04;;;;;;;105.70;17.45;;;;;;;-1.13;100.00;100048.56;5028319;28;20128;-41
2022/12/12 07:53:31;;;;;;;214.35;22.58;;;;;;;-1.12;100.00;100050.19;5026818;28;20438;-41
2022/12/12 07:55:57;;;;;;;211.30;22.65;;;;;;;-1.15;100.00;100042.59;5027904;28;20524;-41
2022/12/12 07:58:24;;;;;;;169.70;20.40;;;;;;;-1.14;100.00;100054.28;5030140;28;20057;-41
2022/12/12 08:00:51;;;;;;;147.35;17.63;;;;;;;-1.17;100.00;100049.41;5032625;28;20064;-42
2022/12/12 08:03:18;;;;;;;143.57;20.00;;;;;;;-1.19;100.00;100049.69;5087674;28;20071;-41
2022/12/12 08:05:44;;;;;;;133.55;19.52;;;;;;;-1.16;100.00;100048.31;5069099;28;20048;-41
2022/12/12 08:08:11;;;;;;;144.98;20.05;;;;;;;-1.18;100.00;100054.03;5087265;28;20283;-45
2022/12/12 08:10:39;;;;;;;107.28;17.35;;;;;;;-1.16;100.00;100048.31;5087905;28;20094;-41
2022/12/12 08:13:07;;;;;;;111.85;17.77;;;;;;;-1.16;100.00;100053.72;5068827;28;20402;-41
2022/12/12 08:15:34;;;;;;;90.80;17.10;;;;;;;-1.16;100.00;100054.56;5087970;28;20394;-44
2022/12/12 08:18:01;;;;;;;96.93;15.98;;;;;;;-1.14;100.00;100060.53;5087718;28;20078;-40
2022/12/12 08:20:28;;;;;;;63.20;15.10;;;;;;;-1.13;100.00;100059.41;5087133;28;20497;-41
2022/12/12 08:22:54;;;;;;;183.20;21.42;;;;;;;-1.14;100.00;100063.25;5087534;28;20035;-41
2022/12/12 08:25:21;;;;;;;177.63;20.17;;;;;;;-1.18;100.00;100061.38;5087127;28;20048;-40
2022/12/12 08:27:48;;;;;;;152.38;20.25;;;;;;;-1.22;100.00;100066.56;5086752;28;20166;-42
2022/12/12 08:30:15;;;;;;;80.63;14.32;;;;;;;-1.22;100.00;100072.00;5071106;28;20067;-46
2022/12/12 08:32:42;;;;;;;120.65;18.17;;;;;;;-1.20;100.00;100064.38;5086347;28;20105;-42
2022/12/12 08:35:08;;;;;;;128.80;17.02;;;;;;;-1.21;100.00;100060.03;5075734;28;20044;-41
2022/12/12 08:37:35;;;;;;;116.93;18.75;;;;;;;-1.19;100.00;100065.19;5075518;28;20479;-49
2022/12/12 08:40:02;;;;;;;198.07;28.00;;;;;;;-1.23;100.00;100059.50;5071811;28;20051;-41
2022/12/12 08:42:29;;;;;;;129.57;21.15;;;;;;;-1.27;100.00;100055.72;5074123;28;20052;-43
2022/12/12 08:44:56;;;;;;;229.32;27.50;;;;;;;-1.30;100.00;100062.53;5080810;28;20044;-41
2022/12/12 08:47:22;;;;;;;138.43;20.02;;;;;;;-1.30;100.00;100057.09;5067145;28;20063;-41
2022/12/12 08:49:49;;;;;;;118.15;20.25;;;;;;;-1.27;100.00;100055.72;5076790;28;20044;-46
2022/12/12 08:52:16;;;;;;;71.32;14.65;;;;;;;-1.25;100.00;100045.41;5083357;28;20044;-41
2022/12/12 08:54:43;;;;;;;108.63;18.55;;;;;;;-1.23;100.00;100048.66;5080503;28;20043;-42
2022/12/12 08:57:12;;;;;;;85.65;16.23;;;;;;;-1.22;100.00;100058.44;5076562;28;20079;-45
2022/12/12 08:59:38;;;;;;;97.40;17.17;;;;;;;-1.18;100.00;100064.09;5075529;28;20044;-45
2022/12/12 09:02:05;;;;;;;83.80;17.13;;;;;;;-1.17;100.00;100063.00;5085088;28;20095;-46
2022/12/12 09:04:33;;;;;;;75.47;16.15;;;;;;;-1.14;100.00;100063.25;5074052;28;20042;-42
2022/12/12 09:07:00;;;;;;;112.68;17.95;;;;;;;-1.13;100.00;100064.84;5074668;28;20044;-41
2022/12/12 09:09:34;;;;;;;137.75;21.40;;;;;;;-1.13;100.00;100059.41;5083180;28;20101;-41
2022/12/12 09:12:01;;;;;;;123.20;18.73;;;;;;;-1.11;100.00;100057.22;5079265;28;20098;-42
2022/12/12 09:14:27;;;;;;;143.05;18.70;;;;;;;-1.09;100.00;100048.81;5066478;28;20421;-41
2022/12/12 09:16:54;;;;;;;338.80;31.30;;;;;;;-1.06;100.00;100048.25;5075210;28;20054;-41
2022/12/12 09:19:21;;;;;;;264.30;25.00;;;;;;;-1.05;100.00;100056.09;5086339;28;20497;-43
2022/12/12 09:21:48;;;;;;;365.05;35.35;;;;;;;-1.02;100.00;100055.53;5086798;28;20453;-42
2022/12/12 09:24:15;;;;;;;156.32;20.58;;;;;;;-0.96;100.00;100059.00;5069151;28;20048;-40
2022/12/12 09:26:42;;;;;;;149.13;20.40;;;;;;;-0.88;100.00;100055.66;5086569;28;20481;-41
2022/12/12 09:29:09;;;;;;;344.13;32.13;;;;;;;-0.80;100.00;100049.63;5081558;28;20053;-41
2022/12/12 09:31:36;;;;;;;242.15;23.58;;;;;;;-0.83;100.00;100061.88;5066634;28;20040;-45
2022/12/12 09:34:03;;;;;;;235.70;24.45;;;;;;;-0.82;100.00;100047.16;5066606;28;20041;-42
2022/12/12 09:36:30;;;;;;;152.65;20.77;;;;;;;-0.80;100.00;100053.16;5071656;28;20125;-41
2022/12/12 09:38:56;;;;;;;95.78;17.20;;;;;;;-0.75;100.00;100058.53;5086611;28;20044;-41
2022/12/12 09:41:29;;;;;;;106.28;17.25;;;;;;;-0.69;100.00;100060.06;5096385;28;20134;-41
2022/12/12 09:44:07;;;;;;;133.55;16.58;;;;;;;-0.63;100.00;100048.06;5085995;28;20044;-45
2022/12/12 09:46:42;;;;;;;93.30;17.25;;;;;;;-0.63;100.00;100048.06;5068160;28;20079;-46
2022/12/12 09:49:18;;;;;;;247.70;24.52;;;;;;;-0.64;100.00;100041.00;5067108;28;20056;-41
2022/12/12 09:51:48;;;;;;;356.17;31.75;;;;;;;-0.59;100.00;100052.91;5081668;28;20151;-50
2022/12/12 09:54:20;;;;;;;302.67;29.33;;;;;;;-0.61;100.00;100047.78;5086967;28;20048;-42
2022/12/12 09:56:59;;;;;;;135.98;17.33;;;;;;;-0.63;100.00;100052.69;5087673;28;20073;-45
2022/12/12 09:59:50;;;;;;;174.05;19.27;;;;;;;-0.58;100.00;100049.13;5094562;28;20489;-41
2022/12/12 10:02:38;;;;;;;199.43;23.38;;;;;;;-0.55;100.00;100059.38;5094669;28;20044;-40
2022/12/12 10:05:20;;;;;;;148.93;20.10;;;;;;;-0.51;100.00;100050.38;5068263;28;20036;-42
2022/12/12 10:07:52;;;;;;;126.63;17.83;;;;;;;-0.50;100.00;100049.28;5086522;28;20044;-42
2022/12/12 10:10:27;;;;;;;135.45;19.80;;;;;;;-0.50;100.00;100045.75;5086536;28;20105;-43
2022/12/12 10:12:57;;;;;;;86.13;14.90;;;;;;;-0.49;100.00;100048.19;5086710;28;20048;-41
2022/12/12 10:15:35;;;;;;;204.70;23.90;;;;;;;-0.49;100.00;100047.38;5090684;28;20067;-43
2022/12/12 10:18:06;;;;;;;141.32;19.20;;;;;;;-0.47;100.00;100042.44;5088366;28;20056;-41
2022/12/12 10:20:42;;;;;;;150.02;17.15;;;;;;;-0.43;100.00;100051.66;5074384;28;20035;-45
2022/12/12 10:23:46;;;;;;;94.38;15.75;;;;;;;-0.43;100.00;100052.47;5087406;28;20148;-43
2022/12/12 10:26:19;;;;;;;113.65;16.77;;;;;;;-0.45;100.00;100056.56;5025688;28;20041;-41
2022/12/12 10:28:50;;;;;;;124.38;16.67;;;;;;;-0.45;100.00;100064.75;5080305;28;20539;-41
2022/12/12 10:31:38;;;;;;;216.50;20.92;;;;;;;-0.44;100.00;100056.28;5091357;28;20245;-41
2022/12/12 10:34:23;;;;;;;186.35;23.15;;;;;;;-0.40;100.00;100065.50;5071386;28;20070;-41
2022/12/12 10:37:31;;;;;;;92.18;14.77;;;;;;;-0.39;100.00;100063.56;5086228;28;20394;-41
2022/12/12 10:40:13;;;;;;;69.47;13.30;;;;;;;-0.35;100.00;100065.44;5075868;28;20036;-44
2022/12/12 10:42:50;;;;;;;119.32;17.33;;;;;;;-0.31;100.00;100057.47;5077041;28;20040;-49
2022/12/12 10:46:01;;;;;;;114.65;16.33;;;;;;;-0.29;100.00;100052.59;5083550;28;20049;-41
2022/12/12 10:48:28;;;;;;;175.75;21.00;;;;;;;-0.24;100.00;100052.53;5079518;28;20044;-41
2022/12/12 10:51:10;;;;;;;122.47;17.42;;;;;;;-0.22;100.00;100053.03;5090540;28;20044;-41
2022/12/12 10:53:39;;;;;;;154.70;20.25;;;;;;;-0.20;100.00;100053.53;5077390;28;20044;-41
2022/12/12 10:56:11;;;;;;;186.13;23.35;;;;;;;-0.18;100.00;100054.06;5090982;28;20296;-41
2022/12/12 10:58:40;;;;;;;104.35;18.85;;;;;;;-0.16;100.00;100047.22;5091275;28;20094;-40
2022/12/12 11:01:17;;;;;;;159.00;23.75;;;;;;;-0.11;100.00;100038.22;5099622;28;20446;-42
2022/12/12 11:04:04;;;;;;;174.40;23.38;;;;;;;-0.07;100.00;100039.22;5079270;28;20139;-40
2022/12/12 11:06:43;;;;;;;182.50;22.42;;;;;;;-0.08;100.00;100038.41;5091213;28;20048;-40
2022/12/12 11:09:16;;;;;;;200.88;22.50;;;;;;;-0.06;100.00;100038.13;5090739;28;20054;-41
2022/12/12 11:12:03;;;;;;;168.57;21.50;;;;;;;-0.01;100.00;100043.50;5092572;28;20055;-41
2022/12/12 11:14:36;;;;;;;100.68;17.02;;;;;;;0.04;100.00;100027.09;5070534;28;20056;-40
2022/12/12 11:17:17;;;;;;;;;;;;;;;0.13;100.00;100035.44;5078863;28;20059;-40
2022/12/12 11:19:44;;;;;;;101.90;18.92;;;;;;;0.18;100.00;100036.19;5082062;28;19923;-42
2022/12/12 11:22:12;;;;;;;91.45;16.40;;;;;;;0.19;100.00;100040.50;5087569;28;20132;-41
2022/12/12 11:24:44;;;;;;;123.60;20.63;;;;;;;0.21;100.00;100023.88;5090151;28;20071;-40
2022/12/12 11:27:24;;;;;;;127.00;19.03;;;;;;;0.27;100.00;100022.69;5089292;28;20520;-40
2022/12/12 11:29:54;;;;;;;106.38;18.73;;;;;;;0.33;100.00;100022.34;5089578;28;20032;-40
2022/12/12 11:32:43;;;;;;;194.80;25.90;;;;;;;0.37;100.00;100028.78;5089734;28;20402;-40
2022/12/12 11:35:34;;;;;;;205.43;26.08;;;;;;;0.38;100.00;100018.72;5088631;28;20040;-42